sensor_id;sensor_type;location;lat;lon;timestamp;pressure;altitude;pressure_sealevel;temperature;humidity
3598;BME280;1813;52.016;8.714;2022-08-21T00:01:18;-16261.94;;;-139.71;70.30
3598;BME280;1813;52.016;8.714;2022-08-21T00:03:52;-16261.94;;;-139.71;70.35
3598;BME280;1813;52.016;8.714;2022-08-21T00:06:25;-16261.94;;;-139.71;71.36
3598;BME280;1813;52.016;8.714;2022-08-21T00:08:57;-16261.94;;;-139.71;71.94
3598;BME280;1813;52.016;8.714;2022-08-21T00:11:29;-16261.94;;;-139.71;72.12
3598;BME280;1813;52.016;8.714;2022-08-21T00:14:01;-16261.94;;;-139.71;72.40
3598;BME280;1813;52.016;8.714;2022-08-21T00:16:33;-16261.94;;;-139.71;72.49
3598;BME280;1813;52.016;8.714;2022-08-21T00:19:06;-16261.94;;;-139.71;72.60
3598;BME280;1813;52.016;8.714;2022-08-21T00:21:40;-16261.94;;;-139.71;72.98
3598;BME280;1813;52.016;8.714;2022-08-21T00:24:12;-16261.94;;;-139.71;72.74
3598;BME280;1813;52.016;8.714;2022-08-21T00:26:44;-16261.94;;;-139.71;72.91
3598;BME280;1813;52.016;8.714;2022-08-21T00:29:17;-16261.94;;;-139.71;73.49
3598;BME280;1813;52.016;8.714;2022-08-21T00:31:49;-16261.94;;;-139.71;74.10
3598;BME280;1813;52.016;8.714;2022-08-21T00:34:21;-16261.94;;;-139.71;74.56
3598;BME280;1813;52.016;8.714;2022-08-21T00:36:54;-16261.94;;;-139.71;74.69
3598;BME280;1813;52.016;8.714;2022-08-21T00:39:26;-16261.94;;;-139.71;74.84
3598;BME280;1813;52.016;8.714;2022-08-21T00:41:57;-16261.94;;;-139.71;74.91
3598;BME280;1813;52.016;8.714;2022-08-21T00:44:29;-16261.94;;;-139.71;75.21
3598;BME280;1813;52.016;8.714;2022-08-21T00:47:01;-16261.94;;;-139.71;76.13
3598;BME280;1813;52.016;8.714;2022-08-21T00:49:33;-16261.94;;;-139.71;75.07
3598;BME280;1813;52.016;8.714;2022-08-21T00:52:09;-16261.94;;;-139.71;74.59
3598;BME280;1813;52.016;8.714;2022-08-21T00:54:41;-16261.94;;;-139.71;74.69
3598;BME280;1813;52.016;8.714;2022-08-21T00:57:15;-16261.94;;;-139.71;75.21
3598;BME280;1813;52.016;8.714;2022-08-21T00:59:51;-16261.94;;;-139.71;75.45
3598;BME280;1813;52.016;8.714;2022-08-21T01:02:25;-16261.94;;;-139.71;74.94
3598;BME280;1813;52.016;8.714;2022-08-21T01:04:57;-16261.94;;;-139.71;74.84
3598;BME280;1813;52.016;8.714;2022-08-21T01:07:30;-16261.94;;;-139.71;74.64
3598;BME280;1813;52.016;8.714;2022-08-21T01:10:03;-16261.94;;;-139.71;74.41
3598;BME280;1813;52.016;8.714;2022-08-21T01:12:35;-16261.94;;;-139.71;74.59
3598;BME280;1813;52.016;8.714;2022-08-21T01:15:08;-16261.94;;;-139.71;74.74
3598;BME280;1813;52.016;8.714;2022-08-21T01:17:40;-16261.94;;;-139.71;74.71
3598;BME280;1813;52.016;8.714;2022-08-21T01:20:12;-16261.94;;;-139.71;74.91
3598;BME280;1813;52.016;8.714;2022-08-21T01:22:45;-16261.94;;;-139.71;74.54
3598;BME280;1813;52.016;8.714;2022-08-21T01:25:18;-16261.94;;;-139.71;74.66
3598;BME280;1813;52.016;8.714;2022-08-21T01:27:50;-16261.94;;;-139.71;75.01
3598;BME280;1813;52.016;8.714;2022-08-21T01:30:25;-16261.94;;;-139.71;75.53
3598;BME280;1813;52.016;8.714;2022-08-21T01:32:58;-16261.94;;;-139.71;75.83
3598;BME280;1813;52.016;8.714;2022-08-21T01:35:30;-16261.94;;;-139.71;75.75
3598;BME280;1813;52.016;8.714;2022-08-21T01:38:03;-16261.94;;;-139.71;75.34
3598;BME280;1813;52.016;8.714;2022-08-21T01:40:35;-16261.94;;;-139.71;75.44
3598;BME280;1813;52.016;8.714;2022-08-21T01:43:07;-16261.94;;;-139.71;75.24
3598;BME280;1813;52.016;8.714;2022-08-21T01:45:39;-16261.94;;;-139.71;74.94
3598;BME280;1813;52.016;8.714;2022-08-21T01:48:10;-16261.94;;;-139.71;74.89
3598;BME280;1813;52.016;8.714;2022-08-21T01:50:42;-16261.94;;;-139.71;74.87
3598;BME280;1813;52.016;8.714;2022-08-21T01:53:16;-16261.94;;;-139.71;74.34
3598;BME280;1813;52.016;8.714;2022-08-21T01:55:47;-16261.94;;;-139.71;73.54
3598;BME280;1813;52.016;8.714;2022-08-21T01:58:19;-16261.94;;;-139.71;73.39
3598;BME280;1813;52.016;8.714;2022-08-21T02:00:51;-16261.94;;;-139.71;72.97
3598;BME280;1813;52.016;8.714;2022-08-21T02:03:24;-16261.94;;;-139.71;72.82
3598;BME280;1813;52.016;8.714;2022-08-21T02:05:56;-16261.94;;;-139.71;73.02
3598;BME280;1813;52.016;8.714;2022-08-21T02:08:30;-16261.94;;;-139.71;73.51
3598;BME280;1813;52.016;8.714;2022-08-21T02:11:02;-16261.94;;;-139.71;73.48
3598;BME280;1813;52.016;8.714;2022-08-21T02:13:34;-16261.94;;;-139.71;73.34
3598;BME280;1813;52.016;8.714;2022-08-21T02:16:06;-16261.94;;;-139.71;73.14
3598;BME280;1813;52.016;8.714;2022-08-21T02:18:38;-16261.94;;;-139.71;73.12
3598;BME280;1813;52.016;8.714;2022-08-21T02:21:10;-16261.94;;;-139.71;73.83
3598;BME280;1813;52.016;8.714;2022-08-21T02:23:43;-16261.94;;;-139.71;74.13
3598;BME280;1813;52.016;8.714;2022-08-21T02:26:15;-16261.94;;;-139.71;73.99
3598;BME280;1813;52.016;8.714;2022-08-21T02:28:47;-16261.94;;;-139.71;74.25
3598;BME280;1813;52.016;8.714;2022-08-21T02:31:19;-16261.94;;;-139.71;74.02
3598;BME280;1813;52.016;8.714;2022-08-21T02:33:52;-16261.94;;;-139.71;73.94
3598;BME280;1813;52.016;8.714;2022-08-21T02:36:23;-16261.94;;;-139.71;73.33
3598;BME280;1813;52.016;8.714;2022-08-21T02:38:57;-16261.94;;;-139.71;73.23
3598;BME280;1813;52.016;8.714;2022-08-21T02:41:28;-16261.94;;;-139.71;73.15
3598;BME280;1813;52.016;8.714;2022-08-21T02:44:00;-16261.94;;;-139.71;73.38
3598;BME280;1813;52.016;8.714;2022-08-21T02:46:32;-16261.94;;;-139.71;73.23
3598;BME280;1813;52.016;8.714;2022-08-21T02:49:04;-16261.94;;;-139.71;73.39
3598;BME280;1813;52.016;8.714;2022-08-21T02:51:36;-16261.94;;;-139.71;74.03
3598;BME280;1813;52.016;8.714;2022-08-21T02:54:09;-16261.94;;;-139.71;74.23
3598;BME280;1813;52.016;8.714;2022-08-21T02:56:41;-16261.94;;;-139.71;74.82
3598;BME280;1813;52.016;8.714;2022-08-21T02:59:13;-16261.94;;;-139.71;75.07
3598;BME280;1813;52.016;8.714;2022-08-21T03:01:44;-16261.94;;;-139.71;75.08
3598;BME280;1813;52.016;8.714;2022-08-21T03:04:16;-16261.94;;;-139.71;74.92
3598;BME280;1813;52.016;8.714;2022-08-21T03:06:48;-16261.94;;;-139.71;74.64
3598;BME280;1813;52.016;8.714;2022-08-21T03:09:21;-16261.94;;;-139.71;74.76
3598;BME280;1813;52.016;8.714;2022-08-21T03:11:54;-16261.94;;;-139.71;74.03
3598;BME280;1813;52.016;8.714;2022-08-21T03:14:26;-16261.94;;;-139.71;73.92
3598;BME280;1813;52.016;8.714;2022-08-21T03:16:58;-16261.94;;;-139.71;73.95
3598;BME280;1813;52.016;8.714;2022-08-21T03:19:29;-16261.94;;;-139.71;74.00
3598;BME280;1813;52.016;8.714;2022-08-21T03:22:01;-16261.94;;;-139.71;73.80
3598;BME280;1813;52.016;8.714;2022-08-21T03:24:34;-16261.94;;;-139.71;73.34
3598;BME280;1813;52.016;8.714;2022-08-21T03:27:06;-16261.94;;;-139.71;73.45
3598;BME280;1813;52.016;8.714;2022-08-21T03:29:38;-16261.94;;;-139.71;73.46
3598;BME280;1813;52.016;8.714;2022-08-21T03:32:10;-16261.94;;;-139.71;73.38
3598;BME280;1813;52.016;8.714;2022-08-21T03:34:42;-16261.94;;;-139.71;73.02
3598;BME280;1813;52.016;8.714;2022-08-21T03:37:14;-16261.94;;;-139.71;73.93
3598;BME280;1813;52.016;8.714;2022-08-21T03:39:49;-16261.94;;;-139.71;74.58
3598;BME280;1813;52.016;8.714;2022-08-21T03:42:21;-16261.94;;;-139.71;74.99
3598;BME280;1813;52.016;8.714;2022-08-21T03:44:53;-16261.94;;;-139.71;74.94
3598;BME280;1813;52.016;8.714;2022-08-21T03:47:25;-16261.94;;;-139.71;74.45
3598;BME280;1813;52.016;8.714;2022-08-21T03:49:57;-16261.94;;;-139.71;74.45
3598;BME280;1813;52.016;8.714;2022-08-21T03:52:29;-16261.94;;;-139.71;75.20
3598;BME280;1813;52.016;8.714;2022-08-21T03:55:03;-16261.94;;;-139.71;75.97
3598;BME280;1813;52.016;8.714;2022-08-21T03:57:35;-16261.94;;;-139.71;76.60
3598;BME280;1813;52.016;8.714;2022-08-21T04:00:09;-16261.94;;;-139.71;77.03
3598;BME280;1813;52.016;8.714;2022-08-21T04:02:42;-16261.94;;;-139.71;77.44
3598;BME280;1813;52.016;8.714;2022-08-21T04:05:16;-16261.94;;;-139.71;77.84
3598;BME280;1813;52.016;8.714;2022-08-21T04:07:59;-16261.94;;;-139.71;77.96
3598;BME280;1813;52.016;8.714;2022-08-21T04:10:35;-16261.94;;;-139.71;77.83
3598;BME280;1813;52.016;8.714;2022-08-21T04:13:08;-16261.94;;;-139.71;77.76
3598;BME280;1813;52.016;8.714;2022-08-21T04:15:40;-16261.94;;;-139.71;77.52
3598;BME280;1813;52.016;8.714;2022-08-21T04:18:12;-16261.94;;;-139.71;77.40
3598;BME280;1813;52.016;8.714;2022-08-21T04:20:45;-16261.94;;;-139.71;77.21
3598;BME280;1813;52.016;8.714;2022-08-21T04:23:18;-16261.94;;;-139.71;77.02
3598;BME280;1813;52.016;8.714;2022-08-21T04:25:52;-16261.94;;;-139.71;76.52
3598;BME280;1813;52.016;8.714;2022-08-21T04:28:26;-16261.94;;;-139.71;76.24
3598;BME280;1813;52.016;8.714;2022-08-21T04:30:58;-16261.94;;;-139.71;76.63
3598;BME280;1813;52.016;8.714;2022-08-21T04:33:30;-16261.94;;;-139.71;76.79
3598;BME280;1813;52.016;8.714;2022-08-21T04:36:02;-16261.94;;;-139.71;76.80
3598;BME280;1813;52.016;8.714;2022-08-21T04:38:34;-16261.94;;;-139.71;77.09
3598;BME280;1813;52.016;8.714;2022-08-21T04:41:07;-16261.94;;;-139.71;77.06
3598;BME280;1813;52.016;8.714;2022-08-21T04:43:39;-16261.94;;;-139.71;77.24
3598;BME280;1813;52.016;8.714;2022-08-21T04:46:11;-16261.94;;;-139.71;77.17
3598;BME280;1813;52.016;8.714;2022-08-21T04:48:43;-16261.94;;;-139.71;77.29
3598;BME280;1813;52.016;8.714;2022-08-21T04:51:17;-16261.94;;;-139.71;77.30
3598;BME280;1813;52.016;8.714;2022-08-21T04:53:53;-16261.94;;;-139.71;77.37
3598;BME280;1813;52.016;8.714;2022-08-21T04:56:29;-16261.94;;;-139.71;77.17
3598;BME280;1813;52.016;8.714;2022-08-21T04:59:06;-16261.94;;;-139.71;76.99
3598;BME280;1813;52.016;8.714;2022-08-21T05:01:43;-16261.94;;;-139.71;76.97
3598;BME280;1813;52.016;8.714;2022-08-21T05:04:18;-16261.94;;;-139.71;77.06
3598;BME280;1813;52.016;8.714;2022-08-21T05:06:54;-16261.94;;;-139.71;77.09
3598;BME280;1813;52.016;8.714;2022-08-21T05:09:28;-16261.94;;;-139.71;76.95
3598;BME280;1813;52.016;8.714;2022-08-21T05:12:02;-16261.94;;;-139.71;77.02
3598;BME280;1813;52.016;8.714;2022-08-21T05:14:34;-16261.94;;;-139.71;76.82
3598;BME280;1813;52.016;8.714;2022-08-21T05:17:06;-16261.94;;;-139.71;76.66
3598;BME280;1813;52.016;8.714;2022-08-21T05:19:38;-16261.94;;;-139.71;76.39
3598;BME280;1813;52.016;8.714;2022-08-21T05:22:10;-16261.94;;;-139.71;76.32
3598;BME280;1813;52.016;8.714;2022-08-21T05:24:42;-16261.94;;;-139.71;76.38
3598;BME280;1813;52.016;8.714;2022-08-21T05:27:15;-16261.94;;;-139.71;76.49
3598;BME280;1813;52.016;8.714;2022-08-21T05:29:46;-16261.94;;;-139.71;76.42
3598;BME280;1813;52.016;8.714;2022-08-21T05:32:18;-16261.94;;;-139.71;76.47
3598;BME280;1813;52.016;8.714;2022-08-21T05:34:51;-16261.94;;;-139.71;76.48
3598;BME280;1813;52.016;8.714;2022-08-21T05:37:23;-16261.94;;;-139.71;76.65
3598;BME280;1813;52.016;8.714;2022-08-21T05:39:54;-16261.94;;;-139.71;76.97
3598;BME280;1813;52.016;8.714;2022-08-21T05:42:28;-16261.94;;;-139.71;77.10
3598;BME280;1813;52.016;8.714;2022-08-21T05:44:59;-16261.94;;;-139.71;77.31
3598;BME280;1813;52.016;8.714;2022-08-21T05:47:31;-16261.94;;;-139.71;77.25
3598;BME280;1813;52.016;8.714;2022-08-21T05:50:04;-16261.94;;;-139.71;77.09
3598;BME280;1813;52.016;8.714;2022-08-21T05:52:36;-16261.94;;;-139.71;77.46
3598;BME280;1813;52.016;8.714;2022-08-21T05:55:08;-16261.94;;;-139.71;77.38
3598;BME280;1813;52.016;8.714;2022-08-21T05:57:41;-16261.94;;;-139.71;77.66
3598;BME280;1813;52.016;8.714;2022-08-21T06:00:14;-16261.94;;;-139.71;78.08
3598;BME280;1813;52.016;8.714;2022-08-21T06:02:47;-16261.94;;;-139.71;78.43
3598;BME280;1813;52.016;8.714;2022-08-21T06:05:19;-16261.94;;;-139.71;78.44
3598;BME280;1813;52.016;8.714;2022-08-21T06:07:51;-16261.94;;;-139.71;78.23
3598;BME280;1813;52.016;8.714;2022-08-21T06:10:22;-16261.94;;;-139.71;77.82
3598;BME280;1813;52.016;8.714;2022-08-21T06:12:56;-16261.94;;;-139.71;77.04
3598;BME280;1813;52.016;8.714;2022-08-21T06:15:27;-16261.94;;;-139.71;76.40
3598;BME280;1813;52.016;8.714;2022-08-21T06:17:59;-16261.94;;;-139.71;76.14
3598;BME280;1813;52.016;8.714;2022-08-21T06:20:31;-16261.94;;;-139.71;75.78
3598;BME280;1813;52.016;8.714;2022-08-21T06:23:03;-16261.94;;;-139.71;76.13
3598;BME280;1813;52.016;8.714;2022-08-21T06:25:35;-16261.94;;;-139.71;75.61
3598;BME280;1813;52.016;8.714;2022-08-21T06:28:09;-16261.94;;;-139.71;75.28
3598;BME280;1813;52.016;8.714;2022-08-21T06:30:41;-16261.94;;;-139.71;74.97
3598;BME280;1813;52.016;8.714;2022-08-21T06:33:14;-16261.94;;;-139.71;75.01
3598;BME280;1813;52.016;8.714;2022-08-21T06:35:46;-16261.94;;;-139.71;74.69
3598;BME280;1813;52.016;8.714;2022-08-21T06:38:17;-16261.94;;;-139.71;75.25
3598;BME280;1813;52.016;8.714;2022-08-21T06:40:49;-16261.94;;;-139.71;75.20
3598;BME280;1813;52.016;8.714;2022-08-21T06:43:23;-16261.94;;;-139.71;75.30
3598;BME280;1813;52.016;8.714;2022-08-21T06:45:54;-16261.94;;;-139.71;74.51
3598;BME280;1813;52.016;8.714;2022-08-21T06:48:26;-16261.94;;;-139.71;71.43
3598;BME280;1813;52.016;8.714;2022-08-21T06:51:00;-16261.94;;;-139.71;69.14
3598;BME280;1813;52.016;8.714;2022-08-21T06:53:32;-16261.94;;;-139.71;69.74
3598;BME280;1813;52.016;8.714;2022-08-21T06:56:04;-16261.94;;;-139.71;68.48
3598;BME280;1813;52.016;8.714;2022-08-21T06:58:38;-16261.94;;;-139.71;67.06
3598;BME280;1813;52.016;8.714;2022-08-21T07:01:10;-16261.94;;;-139.71;66.20
3598;BME280;1813;52.016;8.714;2022-08-21T07:03:42;-16261.94;;;-139.71;64.67
3598;BME280;1813;52.016;8.714;2022-08-21T07:06:14;-16261.94;;;-139.71;63.40
3598;BME280;1813;52.016;8.714;2022-08-21T07:08:46;-16261.94;;;-139.71;62.34
3598;BME280;1813;52.016;8.714;2022-08-21T07:11:21;-16261.94;;;-139.71;60.72
3598;BME280;1813;52.016;8.714;2022-08-21T07:13:55;-16261.94;;;-139.71;59.31
3598;BME280;1813;52.016;8.714;2022-08-21T07:16:27;-16261.94;;;-139.71;59.30
3598;BME280;1813;52.016;8.714;2022-08-21T07:18:58;-16261.94;;;-139.71;58.23
3598;BME280;1813;52.016;8.714;2022-08-21T07:21:31;-16261.94;;;-139.71;55.72
3598;BME280;1813;52.016;8.714;2022-08-21T07:24:03;-16261.94;;;-139.71;54.70
3598;BME280;1813;52.016;8.714;2022-08-21T07:26:35;-16261.94;;;-139.71;53.80
3598;BME280;1813;52.016;8.714;2022-08-21T07:29:08;-16261.94;;;-139.71;51.81
3598;BME280;1813;52.016;8.714;2022-08-21T07:31:40;-16261.94;;;-139.71;52.00
3598;BME280;1813;52.016;8.714;2022-08-21T07:34:12;-16261.94;;;-139.71;51.85
3598;BME280;1813;52.016;8.714;2022-08-21T07:36:44;-16261.94;;;-139.71;51.25
3598;BME280;1813;52.016;8.714;2022-08-21T07:39:16;-16261.94;;;-139.71;51.10
3598;BME280;1813;52.016;8.714;2022-08-21T07:41:48;-16261.94;;;-139.71;50.63
3598;BME280;1813;52.016;8.714;2022-08-21T07:44:21;-16261.94;;;-139.71;49.22
3598;BME280;1813;52.016;8.714;2022-08-21T07:46:53;-16261.94;;;-139.71;49.29
3598;BME280;1813;52.016;8.714;2022-08-21T07:49:24;-16261.94;;;-139.71;49.52
3598;BME280;1813;52.016;8.714;2022-08-21T07:51:56;-16261.94;;;-139.71;49.24
3598;BME280;1813;52.016;8.714;2022-08-21T07:54:28;-16261.94;;;-139.71;48.59
3598;BME280;1813;52.016;8.714;2022-08-21T07:57:00;-16261.94;;;-139.71;47.22
3598;BME280;1813;52.016;8.714;2022-08-21T07:59:34;-16261.94;;;-139.71;46.77
3598;BME280;1813;52.016;8.714;2022-08-21T08:02:06;-16261.94;;;-139.71;45.11
3598;BME280;1813;52.016;8.714;2022-08-21T08:04:37;-16261.94;;;-139.71;45.24
3598;BME280;1813;52.016;8.714;2022-08-21T08:07:09;-16261.94;;;-139.71;45.73
3598;BME280;1813;52.016;8.714;2022-08-21T08:09:41;-16261.94;;;-139.71;45.24
3598;BME280;1813;52.016;8.714;2022-08-21T08:12:13;-16261.94;;;-139.71;44.83
3598;BME280;1813;52.016;8.714;2022-08-21T08:14:47;-16261.94;;;-139.71;44.92
3598;BME280;1813;52.016;8.714;2022-08-21T08:17:19;-16261.94;;;-139.71;45.58
3598;BME280;1813;52.016;8.714;2022-08-21T08:19:54;-16261.94;;;-139.71;46.20
3598;BME280;1813;52.016;8.714;2022-08-21T08:22:26;-16261.94;;;-139.71;44.60
3598;BME280;1813;52.016;8.714;2022-08-21T08:24:58;-16261.94;;;-139.71;42.29
3598;BME280;1813;52.016;8.714;2022-08-21T08:27:31;-16261.94;;;-139.71;42.68
3598;BME280;1813;52.016;8.714;2022-08-21T08:30:06;-16261.94;;;-139.71;41.88
3598;BME280;1813;52.016;8.714;2022-08-21T08:32:38;-16261.94;;;-139.71;42.10
3598;BME280;1813;52.016;8.714;2022-08-21T08:35:11;-16261.94;;;-139.71;42.49
3598;BME280;1813;52.016;8.714;2022-08-21T08:37:43;-16261.94;;;-139.71;41.19
3598;BME280;1813;52.016;8.714;2022-08-21T08:40:20;-16261.94;;;-139.71;41.14
3598;BME280;1813;52.016;8.714;2022-08-21T08:42:53;-16261.94;;;-139.71;41.97
3598;BME280;1813;52.016;8.714;2022-08-21T08:45:29;-16261.94;;;-139.71;39.31
3598;BME280;1813;52.016;8.714;2022-08-21T08:48:06;-16261.94;;;-139.71;38.54
3598;BME280;1813;52.016;8.714;2022-08-21T08:50:41;-16261.94;;;-139.71;37.82
3598;BME280;1813;52.016;8.714;2022-08-21T08:53:17;-16261.94;;;-139.71;37.81
3598;BME280;1813;52.016;8.714;2022-08-21T08:55:52;-16261.94;;;-139.71;37.44
3598;BME280;1813;52.016;8.714;2022-08-21T08:58:27;-16261.94;;;-139.71;36.39
3598;BME280;1813;52.016;8.714;2022-08-21T09:01:05;-16261.94;;;-139.71;36.56
3598;BME280;1813;52.016;8.714;2022-08-21T09:03:39;-16261.94;;;-139.71;36.81
3598;BME280;1813;52.016;8.714;2022-08-21T09:06:18;-16261.94;;;-139.71;37.11
3598;BME280;1813;52.016;8.714;2022-08-21T09:09:02;-16261.94;;;-139.71;37.19
3598;BME280;1813;52.016;8.714;2022-08-21T09:11:41;-16261.94;;;-139.71;37.72
3598;BME280;1813;52.016;8.714;2022-08-21T09:14:20;-16261.94;;;-139.71;36.41
3598;BME280;1813;52.016;8.714;2022-08-21T09:17:04;-16261.94;;;-139.71;36.42
3598;BME280;1813;52.016;8.714;2022-08-21T09:19:52;-16261.94;;;-139.71;36.51
3598;BME280;1813;52.016;8.714;2022-08-21T09:22:34;-16261.94;;;-139.71;36.33
3598;BME280;1813;52.016;8.714;2022-08-21T09:25:15;-16261.94;;;-139.71;36.49
3598;BME280;1813;52.016;8.714;2022-08-21T09:27:48;-16261.94;;;-139.71;36.00
3598;BME280;1813;52.016;8.714;2022-08-21T09:30:25;-16261.94;;;-139.71;35.56
3598;BME280;1813;52.016;8.714;2022-08-21T09:32:58;-16261.94;;;-139.71;35.52
3598;BME280;1813;52.016;8.714;2022-08-21T09:35:30;-16261.94;;;-139.71;35.20
3598;BME280;1813;52.016;8.714;2022-08-21T09:38:06;-16261.94;;;-139.71;35.70
3598;BME280;1813;52.016;8.714;2022-08-21T09:40:41;-16261.94;;;-139.71;36.42
3598;BME280;1813;52.016;8.714;2022-08-21T09:43:17;-16261.94;;;-139.71;37.10
3598;BME280;1813;52.016;8.714;2022-08-21T09:46:02;-16261.94;;;-139.71;36.58
3598;BME280;1813;52.016;8.714;2022-08-21T09:48:45;-16261.94;;;-139.71;36.18
3598;BME280;1813;52.016;8.714;2022-08-21T09:51:19;-16261.94;;;-139.71;36.13
3598;BME280;1813;52.016;8.714;2022-08-21T09:53:54;-16261.94;;;-139.71;36.39
3598;BME280;1813;52.016;8.714;2022-08-21T09:56:29;-16261.94;;;-139.71;36.13
3598;BME280;1813;52.016;8.714;2022-08-21T09:59:26;-16261.94;;;-139.71;35.84
3598;BME280;1813;52.016;8.714;2022-08-21T10:02:07;-16261.94;;;-139.71;35.71
3598;BME280;1813;52.016;8.714;2022-08-21T10:04:54;-16261.94;;;-139.71;35.66
3598;BME280;1813;52.016;8.714;2022-08-21T10:07:29;-16261.94;;;-139.71;35.07
3598;BME280;1813;52.016;8.714;2022-08-21T10:10:05;-16261.94;;;-139.71;34.61
3598;BME280;1813;52.016;8.714;2022-08-21T10:12:44;-16261.94;;;-139.71;34.43
3598;BME280;1813;52.016;8.714;2022-08-21T10:15:23;-16261.94;;;-139.71;34.22
3598;BME280;1813;52.016;8.714;2022-08-21T10:18:04;-16261.94;;;-139.71;34.91
3598;BME280;1813;52.016;8.714;2022-08-21T10:20:45;-16261.94;;;-139.71;34.69
3598;BME280;1813;52.016;8.714;2022-08-21T10:23:33;-16261.94;;;-139.71;34.40
3598;BME280;1813;52.016;8.714;2022-08-21T10:26:16;-16261.94;;;-139.71;34.79
3598;BME280;1813;52.016;8.714;2022-08-21T10:29:02;-16261.94;;;-139.71;35.12
3598;BME280;1813;52.016;8.714;2022-08-21T10:31:40;-16261.94;;;-139.71;35.43
3598;BME280;1813;52.016;8.714;2022-08-21T10:34:24;-16261.94;;;-139.71;34.63
3598;BME280;1813;52.016;8.714;2022-08-21T10:37:13;-16261.94;;;-139.71;34.76
3598;BME280;1813;52.016;8.714;2022-08-21T10:39:56;-16261.94;;;-139.71;35.26
3598;BME280;1813;52.016;8.714;2022-08-21T10:42:36;-16261.94;;;-139.71;34.19
3598;BME280;1813;52.016;8.714;2022-08-21T10:45:31;-16261.94;;;-139.71;33.96
3598;BME280;1813;52.016;8.714;2022-08-21T10:48:07;-16261.94;;;-139.71;33.87
3598;BME280;1813;52.016;8.714;2022-08-21T10:50:48;-16261.94;;;-139.71;33.75
3598;BME280;1813;52.016;8.714;2022-08-21T10:53:35;-16261.94;;;-139.71;33.65
3598;BME280;1813;52.016;8.714;2022-08-21T10:56:16;-16261.94;;;-139.71;34.06
3598;BME280;1813;52.016;8.714;2022-08-21T10:59:20;-16261.94;;;-139.71;34.97
3598;BME280;1813;52.016;8.714;2022-08-21T11:02:00;-16261.94;;;-139.71;34.90
3598;BME280;1813;52.016;8.714;2022-08-21T11:04:37;-16261.94;;;-139.71;34.40
3598;BME280;1813;52.016;8.714;2022-08-21T11:07:16;-16261.94;;;-139.71;34.29
3598;BME280;1813;52.016;8.714;2022-08-21T11:09:54;-16261.94;;;-139.71;33.55
3598;BME280;1813;52.016;8.714;2022-08-21T11:12:33;-16261.94;;;-139.71;33.22
3598;BME280;1813;52.016;8.714;2022-08-21T11:15:18;-16261.94;;;-139.71;33.42
3598;BME280;1813;52.016;8.714;2022-08-21T11:18:00;-16261.94;;;-139.71;33.13
3598;BME280;1813;52.016;8.714;2022-08-21T11:20:39;-16261.94;;;-139.71;34.05
3598;BME280;1813;52.016;8.714;2022-08-21T11:23:18;-16261.94;;;-139.71;33.80
3598;BME280;1813;52.016;8.714;2022-08-21T11:25:57;-16261.94;;;-139.71;33.70
3598;BME280;1813;52.016;8.714;2022-08-21T11:28:33;-16261.94;;;-139.71;33.52
3598;BME280;1813;52.016;8.714;2022-08-21T11:31:15;-16261.94;;;-139.71;33.25
3598;BME280;1813;52.016;8.714;2022-08-21T11:34:02;-16261.94;;;-139.71;33.55
3598;BME280;1813;52.016;8.714;2022-08-21T11:36:41;-16261.94;;;-139.71;34.97
3598;BME280;1813;52.016;8.714;2022-08-21T11:39:22;-16261.94;;;-139.71;34.28
3598;BME280;1813;52.016;8.714;2022-08-21T11:42:08;-16261.94;;;-139.71;33.17
3598;BME280;1813;52.016;8.714;2022-08-21T11:44:53;-16261.94;;;-139.71;32.33
3598;BME280;1813;52.016;8.714;2022-08-21T11:47:35;-16261.94;;;-139.71;32.83
3598;BME280;1813;52.016;8.714;2022-08-21T11:50:14;-16261.94;;;-139.71;32.96
3598;BME280;1813;52.016;8.714;2022-08-21T11:52:49;-16261.94;;;-139.71;32.79
3598;BME280;1813;52.016;8.714;2022-08-21T11:55:28;-16261.94;;;-139.71;32.83
3598;BME280;1813;52.016;8.714;2022-08-21T11:58:07;-16261.94;;;-139.71;32.84
3598;BME280;1813;52.016;8.714;2022-08-21T12:00:43;-16261.94;;;-139.71;31.88
3598;BME280;1813;52.016;8.714;2022-08-21T12:03:24;-16261.94;;;-139.71;32.09
3598;BME280;1813;52.016;8.714;2022-08-21T12:06:00;-16261.94;;;-139.71;31.50
3598;BME280;1813;52.016;8.714;2022-08-21T12:08:37;-16261.94;;;-139.71;31.61
3598;BME280;1813;52.016;8.714;2022-08-21T12:11:22;-16261.94;;;-139.71;31.18
3598;BME280;1813;52.016;8.714;2022-08-21T12:13:58;-16261.94;;;-139.71;31.69
3598;BME280;1813;52.016;8.714;2022-08-21T12:16:33;-16261.94;;;-139.71;32.00
3598;BME280;1813;52.016;8.714;2022-08-21T12:19:07;-16261.94;;;-139.71;32.37
3598;BME280;1813;52.016;8.714;2022-08-21T12:21:48;-16261.94;;;-139.71;31.57
3598;BME280;1813;52.016;8.714;2022-08-21T12:24:32;-16261.94;;;-139.71;31.23
3598;BME280;1813;52.016;8.714;2022-08-21T12:27:19;-16261.94;;;-139.71;31.10
3598;BME280;1813;52.016;8.714;2022-08-21T12:30:00;-16261.94;;;-139.71;30.43
3598;BME280;1813;52.016;8.714;2022-08-21T12:32:43;-16261.94;;;-139.71;30.53
3598;BME280;1813;52.016;8.714;2022-08-21T12:35:18;-16261.94;;;-139.71;31.09
3598;BME280;1813;52.016;8.714;2022-08-21T12:37:57;-16261.94;;;-139.71;30.71
3598;BME280;1813;52.016;8.714;2022-08-21T12:40:37;-16261.94;;;-139.71;29.35
3598;BME280;1813;52.016;8.714;2022-08-21T12:43:13;-16261.94;;;-139.71;29.65
3598;BME280;1813;52.016;8.714;2022-08-21T12:45:49;-16261.94;;;-139.71;29.57
3598;BME280;1813;52.016;8.714;2022-08-21T12:48:26;-16261.94;;;-139.71;30.24
3598;BME280;1813;52.016;8.714;2022-08-21T12:51:07;-16261.94;;;-139.71;30.09
3598;BME280;1813;52.016;8.714;2022-08-21T12:53:44;-16261.94;;;-139.71;30.51
3598;BME280;1813;52.016;8.714;2022-08-21T12:56:20;-16261.94;;;-139.71;29.67
3598;BME280;1813;52.016;8.714;2022-08-21T12:58:55;-16261.94;;;-139.71;29.83
3598;BME280;1813;52.016;8.714;2022-08-21T13:01:31;-16261.94;;;-139.71;30.68
3598;BME280;1813;52.016;8.714;2022-08-21T13:04:08;-16261.94;;;-139.71;30.44
3598;BME280;1813;52.016;8.714;2022-08-21T13:06:44;-16261.94;;;-139.71;30.33
3598;BME280;1813;52.016;8.714;2022-08-21T13:09:18;-16261.94;;;-139.71;30.58
3598;BME280;1813;52.016;8.714;2022-08-21T13:11:52;-16261.94;;;-139.71;30.43
3598;BME280;1813;52.016;8.714;2022-08-21T13:14:28;-16261.94;;;-139.71;29.71
3598;BME280;1813;52.016;8.714;2022-08-21T13:17:04;-16261.94;;;-139.71;29.59
3598;BME280;1813;52.016;8.714;2022-08-21T13:19:37;-16261.94;;;-139.71;29.64
3598;BME280;1813;52.016;8.714;2022-08-21T13:22:14;-16261.94;;;-139.71;29.74
3598;BME280;1813;52.016;8.714;2022-08-21T13:24:47;-16261.94;;;-139.71;29.82
3598;BME280;1813;52.016;8.714;2022-08-21T13:27:23;-16261.94;;;-139.71;30.21
3598;BME280;1813;52.016;8.714;2022-08-21T13:30:08;-16261.94;;;-139.71;30.65